Airport ID:K0A0
Update Time (UTC):24/10/2020 12:02
Wind Speed (Knots):2
Wind Direction (Magnetic):50
Temperature (°C):7.3
Dew Point (°C):-1
Humidity (%):55.9
Altimeter (inHg):30.12
Density Altitude (Feet):
Visibility (Miles):10
Clouds (Hundreds of feet):CLR
Present Weather:
METAR:METAR K0A0 241200Z AUTO 00000KT 10SM CLR 07/M01 A3012 RMK AO2

The data displayed is for advisory purposes only and is not to be used for flight planning or operations.